Platzwetter Flugplatz Wels

Flugwetter Linz LOWL

[Quelle: ADDS]
METAR
LOWL 232150Z AUTO 09014KT 9999 SCT210 12/07 Q1005 =
LOWL 231715Z 2318/2418 09017KT 9999 FEW035 BKN100 TX25/2414Z TN11/2403Z BECMG 2319/2321 09012KT CAVOK BECMG 2410/2413 12005KT
TAF
LOWL 231715Z 2318/2418 09017KT 9999 FEW035 BKN100 TX25/2414Z TN11/2403Z BECMG 2319/2321 09012KT CAVOK BECMG 2410/2413 12005KT =

Flugwetter Salzburg LOWS

[Quelle: ADDS]
METAR
LOWS 232150Z AUTO 13008KT 9999 FEW140 15/03 Q1003 =
LOWS 231715Z 2318/2418 15010KT CAVOK TX26/2414Z TN11/2404Z PROB40 TEMPO 2318/2322 15013G23KT PROB30 TEMPO 2400/2406 VRB02KT TEMPO 2408/2418 15015G25KT 9999 FEW070 SCT140 BKN300
TAF
LOWS 231715Z 2318/2418 15010KT CAVOK TX26/2414Z TN11/2404Z PROB40 TEMPO 2318/2322 15013G23KT PROB30 TEMPO 2400/2406 VRB02KT TEMPO 2408/2418 15015G25KT 9999 FEW070 SCT140 BKN300 =

Wind - Verlauf

Windrichtung - Verlauf

Temperatur - Verlauf

Relative Luftfeuchtigkeit - Verlauf

Luftdruck - Verlauf


Pilot für einen Tag - Erfülle Dir den Traum vom Fliegen!

Werde einen Tag lang Pilot bei und mit dem Fliegerclub Weiße Möwe in Wels!

Stadt - Wels

Ausflugsziele & Sehenswürdigkeiten
in Wels und Umgebung

JU-52

JU-52 Rundflüge.
Aktuelle Infos & News.

Cookies erleichtern die Bereitstellung unserer Dienste. Mit der Nutzung unserer Dienste erklären Sie sich damit einverstanden, dass wir Cookies verwenden.
Weitere Informationen Ok